Taif, Saudi Arabia

11:34 AM AST on December 05, 2016 (GMT +0300)
Taif | | Change Station

Elev 4849 ft 21.48 °N, 40.54 °E | Updated 34 minutes ago

Clear
Clear
81 °F
Feels Like 81 °F
N
5
Wind Variable Wind from South

Today
High -- | Low -- °F
--% Chance of Precip.
Yesterday
High -- | Low -- °F
Precip. -- in
Pressure 30.24 in
Visibility -9999.0 miles
Clouds
Dew Point 41 °F
Humidity 24%
Rainfall 0.00 in
Snow Depth Not available.
6:41 AM 5:35 PM
Waxing Crescent, 29% visible
METAR OETF 050800Z 18004KT CAVOK 27/05 Q1024 NOSIG
Pressure 30.24 in
Visibility -9999.0 miles
Clouds
Dew Point 41 °F
Humidity 24%
Rainfall 0.00 in
Snow Depth Not available.
6:41 AM 5:35 PM
Waxing Crescent, 29% visible
METAR OETF 050800Z 18004KT CAVOK 27/05 Q1024 NOSIG

10-Day Weather Forecast

No radar image for this location.
×

Almanac

Astronomy

Dec. 05, 2016 Rise Set
Actual Time
Civil Twilight
Nautical Twilight
Astronomical Twilight
Moon
Length of Visible Light
Length of Day
Tomorrow will be .
, % of the Moon is Illuminated

Today's Extremes

Country Highs Country Lows

Community

WunderPhotos

Upload Photos

1,955,771 photos uploaded!

WunderBlog® & News

Nearby

Air Quality

  Air Quality AQ Index Pollutant
Not available.

Snow Depth

Station Depth Elevation

Earthquake Activity

City Distance Mag. Time & Date
Minimum magnitude displayed is 2.5.

Coastal Water Temperatures

Place Temperature

Stations

Nearby Weather Stations

Station Location Temp. Windchill Dew Point Humidity Wind Precip. Elev Updated Type